sensor_id;sensor_type;location;lat;lon;timestamp;P1;durP1;ratioP1;P2;durP2;ratioP2
36215;SDS011;22257;52.232;21.084;2022-07-17T00:00:41;5.95;;;2.05;;
36215;SDS011;22257;52.232;21.084;2022-07-17T00:03:12;6.83;;;1.70;;
36215;SDS011;22257;52.232;21.084;2022-07-17T00:05:40;6.95;;;1.82;;
36215;SDS011;22257;52.232;21.084;2022-07-17T00:08:08;5.35;;;2.10;;
36215;SDS011;22257;52.232;21.084;2022-07-17T00:10:36;5.47;;;1.57;;
36215;SDS011;22257;52.232;21.084;2022-07-17T00:13:05;6.55;;;1.80;;
36215;SDS011;22257;52.232;21.084;2022-07-17T00:15:32;7.70;;;2.00;;
36215;SDS011;22257;52.232;21.084;2022-07-17T00:17:58;5.12;;;1.70;;
36215;SDS011;22257;52.232;21.084;2022-07-17T00:20:25;3.87;;;1.80;;
36215;SDS011;22257;52.232;21.084;2022-07-17T00:22:53;8.00;;;1.80;;
36215;SDS011;22257;52.232;21.084;2022-07-17T00:25:21;4.83;;;1.90;;
36215;SDS011;22257;52.232;21.084;2022-07-17T00:27:48;5.35;;;1.60;;
36215;SDS011;22257;52.232;21.084;2022-07-17T00:30:14;7.08;;;1.90;;
36215;SDS011;22257;52.232;21.084;2022-07-17T00:32:42;3.58;;;1.50;;
36215;SDS011;22257;52.232;21.084;2022-07-17T00:35:08;6.87;;;1.40;;
36215;SDS011;22257;52.232;21.084;2022-07-17T00:37:44;7.70;;;2.10;;
36215;SDS011;22257;52.232;21.084;2022-07-17T00:40:08;8.88;;;1.70;;
36215;SDS011;22257;52.232;21.084;2022-07-17T00:42:38;7.17;;;2.17;;
36215;SDS011;22257;52.232;21.084;2022-07-17T00:45:07;3.47;;;1.40;;
36215;SDS011;22257;52.232;21.084;2022-07-17T00:47:35;5.65;;;2.02;;
36215;SDS011;22257;52.232;21.084;2022-07-17T00:50:14;6.15;;;1.70;;
36215;SDS011;22257;52.232;21.084;2022-07-17T00:52:40;4.72;;;1.57;;
36215;SDS011;22257;52.232;21.084;2022-07-17T00:55:07;4.40;;;1.50;;
36215;SDS011;22257;52.232;21.084;2022-07-17T00:57:34;9.05;;;1.80;;
36215;SDS011;22257;52.232;21.084;2022-07-17T01:00:04;6.45;;;2.10;;
36215;SDS011;22257;52.232;21.084;2022-07-17T01:04:58;6.35;;;1.80;;
36215;SDS011;22257;52.232;21.084;2022-07-17T01:07:24;10.72;;;2.02;;
36215;SDS011;22257;52.232;21.084;2022-07-17T01:09:51;4.35;;;1.80;;
36215;SDS011;22257;52.232;21.084;2022-07-17T01:12:17;7.00;;;2.05;;
36215;SDS011;22257;52.232;21.084;2022-07-17T01:14:44;7.92;;;1.75;;
36215;SDS011;22257;52.232;21.084;2022-07-17T01:17:10;4.92;;;1.72;;
36215;SDS011;22257;52.232;21.084;2022-07-17T01:19:37;9.48;;;2.10;;
36215;SDS011;22257;52.232;21.084;2022-07-17T01:22:03;8.45;;;2.42;;
36215;SDS011;22257;52.232;21.084;2022-07-17T01:24:29;10.13;;;1.92;;
36215;SDS011;22257;52.232;21.084;2022-07-17T01:26:55;6.47;;;2.10;;
36215;SDS011;22257;52.232;21.084;2022-07-17T01:29:22;6.58;;;1.95;;
36215;SDS011;22257;52.232;21.084;2022-07-17T01:31:49;5.35;;;2.00;;
36215;SDS011;22257;52.232;21.084;2022-07-17T01:34:15;7.15;;;1.95;;
36215;SDS011;22257;52.232;21.084;2022-07-17T01:36:41;5.03;;;1.90;;
36215;SDS011;22257;52.232;21.084;2022-07-17T01:39:08;4.53;;;2.00;;
36215;SDS011;22257;52.232;21.084;2022-07-17T01:41:35;4.97;;;1.90;;
36215;SDS011;22257;52.232;21.084;2022-07-17T01:44:01;10.05;;;2.22;;
36215;SDS011;22257;52.232;21.084;2022-07-17T01:46:29;7.42;;;2.00;;
36215;SDS011;22257;52.232;21.084;2022-07-17T01:48:55;8.03;;;1.90;;
36215;SDS011;22257;52.232;21.084;2022-07-17T01:51:21;5.37;;;2.05;;
36215;SDS011;22257;52.232;21.084;2022-07-17T01:53:47;9.73;;;1.98;;
36215;SDS011;22257;52.232;21.084;2022-07-17T01:56:13;6.97;;;1.85;;
36215;SDS011;22257;52.232;21.084;2022-07-17T01:58:39;7.35;;;1.62;;
36215;SDS011;22257;52.232;21.084;2022-07-17T02:01:06;5.55;;;1.87;;
36215;SDS011;22257;52.232;21.084;2022-07-17T02:03:32;5.45;;;1.77;;
36215;SDS011;22257;52.232;21.084;2022-07-17T02:05:58;7.92;;;2.12;;
36215;SDS011;22257;52.232;21.084;2022-07-17T02:08:24;7.47;;;1.90;;
36215;SDS011;22257;52.232;21.084;2022-07-17T02:10:50;6.33;;;1.72;;
36215;SDS011;22257;52.232;21.084;2022-07-17T02:13:16;5.58;;;2.25;;
36215;SDS011;22257;52.232;21.084;2022-07-17T02:15:43;4.95;;;2.33;;
36215;SDS011;22257;52.232;21.084;2022-07-17T02:18:09;8.35;;;2.27;;
36215;SDS011;22257;52.232;21.084;2022-07-17T02:20:35;11.53;;;2.58;;
36215;SDS011;22257;52.232;21.084;2022-07-17T02:23:01;4.03;;;2.30;;
36215;SDS011;22257;52.232;21.084;2022-07-17T02:25:27;8.30;;;2.80;;
36215;SDS011;22257;52.232;21.084;2022-07-17T02:27:54;8.33;;;2.42;;
36215;SDS011;22257;52.232;21.084;2022-07-17T02:30:20;8.25;;;2.77;;
36215;SDS011;22257;52.232;21.084;2022-07-17T02:32:46;8.00;;;3.62;;
36215;SDS011;22257;52.232;21.084;2022-07-17T02:35:12;12.70;;;4.03;;
36215;SDS011;22257;52.232;21.084;2022-07-17T02:37:39;9.10;;;4.12;;
36215;SDS011;22257;52.232;21.084;2022-07-17T02:40:09;13.60;;;4.50;;
36215;SDS011;22257;52.232;21.084;2022-07-17T02:42:36;10.68;;;3.67;;
36215;SDS011;22257;52.232;21.084;2022-07-17T02:45:02;7.30;;;3.47;;
36215;SDS011;22257;52.232;21.084;2022-07-17T02:47:30;10.15;;;3.77;;
36215;SDS011;22257;52.232;21.084;2022-07-17T02:49:58;10.03;;;3.60;;
36215;SDS011;22257;52.232;21.084;2022-07-17T02:52:27;15.03;;;3.90;;
36215;SDS011;22257;52.232;21.084;2022-07-17T02:54:53;11.48;;;4.10;;
36215;SDS011;22257;52.232;21.084;2022-07-17T02:57:19;11.55;;;3.77;;
36215;SDS011;22257;52.232;21.084;2022-07-17T02:59:46;10.30;;;3.35;;
36215;SDS011;22257;52.232;21.084;2022-07-17T03:02:13;12.65;;;3.30;;
36215;SDS011;22257;52.232;21.084;2022-07-17T03:04:40;9.25;;;3.65;;
36215;SDS011;22257;52.232;21.084;2022-07-17T03:07:07;12.35;;;3.37;;
36215;SDS011;22257;52.232;21.084;2022-07-17T03:09:33;11.03;;;3.25;;
36215;SDS011;22257;52.232;21.084;2022-07-17T03:11:59;14.70;;;4.28;;
36215;SDS011;22257;52.232;21.084;2022-07-17T03:14:25;7.65;;;3.50;;
36215;SDS011;22257;52.232;21.084;2022-07-17T03:16:51;10.25;;;3.50;;
36215;SDS011;22257;52.232;21.084;2022-07-17T03:19:17;10.65;;;3.27;;
36215;SDS011;22257;52.232;21.084;2022-07-17T03:21:44;11.28;;;3.70;;
36215;SDS011;22257;52.232;21.084;2022-07-17T03:24:10;13.40;;;3.60;;
36215;SDS011;22257;52.232;21.084;2022-07-17T03:26:37;14.18;;;3.40;;
36215;SDS011;22257;52.232;21.084;2022-07-17T03:29:03;14.15;;;3.60;;
36215;SDS011;22257;52.232;21.084;2022-07-17T03:31:29;11.35;;;3.40;;
36215;SDS011;22257;52.232;21.084;2022-07-17T03:33:55;11.22;;;3.20;;
36215;SDS011;22257;52.232;21.084;2022-07-17T03:36:21;11.22;;;3.65;;
36215;SDS011;22257;52.232;21.084;2022-07-17T03:38:47;18.10;;;3.72;;
36215;SDS011;22257;52.232;21.084;2022-07-17T03:41:13;14.95;;;3.70;;
36215;SDS011;22257;52.232;21.084;2022-07-17T03:43:39;9.78;;;3.55;;
36215;SDS011;22257;52.232;21.084;2022-07-17T03:46:05;7.55;;;3.35;;
36215;SDS011;22257;52.232;21.084;2022-07-17T03:48:31;9.83;;;3.85;;
36215;SDS011;22257;52.232;21.084;2022-07-17T03:50:57;11.20;;;3.72;;
36215;SDS011;22257;52.232;21.084;2022-07-17T03:53:23;7.17;;;3.17;;
36215;SDS011;22257;52.232;21.084;2022-07-17T03:55:49;9.45;;;3.00;;
36215;SDS011;22257;52.232;21.084;2022-07-17T03:58:15;6.25;;;2.87;;
36215;SDS011;22257;52.232;21.084;2022-07-17T04:00:41;9.53;;;3.00;;
36215;SDS011;22257;52.232;21.084;2022-07-17T04:03:07;8.43;;;2.98;;
36215;SDS011;22257;52.232;21.084;2022-07-17T04:05:33;8.70;;;2.72;;
36215;SDS011;22257;52.232;21.084;2022-07-17T04:07:59;9.33;;;2.80;;
36215;SDS011;22257;52.232;21.084;2022-07-17T04:10:26;7.97;;;2.98;;
36215;SDS011;22257;52.232;21.084;2022-07-17T04:12:52;14.07;;;3.37;;
36215;SDS011;22257;52.232;21.084;2022-07-17T04:15:18;5.28;;;3.15;;
36215;SDS011;22257;52.232;21.084;2022-07-17T04:17:46;10.20;;;2.55;;
36215;SDS011;22257;52.232;21.084;2022-07-17T04:20:12;9.85;;;2.87;;
36215;SDS011;22257;52.232;21.084;2022-07-17T04:22:38;7.20;;;3.15;;
36215;SDS011;22257;52.232;21.084;2022-07-17T04:25:04;4.75;;;2.83;;
36215;SDS011;22257;52.232;21.084;2022-07-17T04:27:30;11.83;;;3.08;;
36215;SDS011;22257;52.232;21.084;2022-07-17T04:29:56;7.87;;;2.80;;
36215;SDS011;22257;52.232;21.084;2022-07-17T04:32:22;7.80;;;2.70;;
36215;SDS011;22257;52.232;21.084;2022-07-17T04:34:48;7.55;;;2.92;;
36215;SDS011;22257;52.232;21.084;2022-07-17T04:37:14;5.45;;;2.60;;
36215;SDS011;22257;52.232;21.084;2022-07-17T04:39:40;8.13;;;2.80;;
36215;SDS011;22257;52.232;21.084;2022-07-17T04:42:06;9.23;;;2.98;;
36215;SDS011;22257;52.232;21.084;2022-07-17T04:44:32;6.60;;;3.00;;
36215;SDS011;22257;52.232;21.084;2022-07-17T04:46:58;8.58;;;2.83;;
36215;SDS011;22257;52.232;21.084;2022-07-17T04:49:26;9.00;;;2.92;;
36215;SDS011;22257;52.232;21.084;2022-07-17T04:51:52;6.97;;;2.58;;
36215;SDS011;22257;52.232;21.084;2022-07-17T04:54:18;6.92;;;2.72;;
36215;SDS011;22257;52.232;21.084;2022-07-17T04:56:44;9.15;;;2.62;;
36215;SDS011;22257;52.232;21.084;2022-07-17T04:59:10;7.55;;;2.87;;
36215;SDS011;22257;52.232;21.084;2022-07-17T05:01:36;11.38;;;2.52;;
36215;SDS011;22257;52.232;21.084;2022-07-17T05:04:02;7.08;;;2.37;;
36215;SDS011;22257;52.232;21.084;2022-07-17T05:06:30;10.13;;;2.65;;
36215;SDS011;22257;52.232;21.084;2022-07-17T05:08:56;8.28;;;2.40;;
36215;SDS011;22257;52.232;21.084;2022-07-17T05:11:22;9.18;;;2.42;;
36215;SDS011;22257;52.232;21.084;2022-07-17T05:13:48;9.75;;;2.55;;
36215;SDS011;22257;52.232;21.084;2022-07-17T05:16:14;8.70;;;2.75;;
36215;SDS011;22257;52.232;21.084;2022-07-17T05:18:40;16.35;;;2.27;;
36215;SDS011;22257;52.232;21.084;2022-07-17T05:21:06;7.62;;;2.52;;
36215;SDS011;22257;52.232;21.084;2022-07-17T05:23:32;10.93;;;2.75;;
36215;SDS011;22257;52.232;21.084;2022-07-17T05:25:58;7.08;;;2.12;;
36215;SDS011;22257;52.232;21.084;2022-07-17T05:28:25;8.08;;;3.37;;
36215;SDS011;22257;52.232;21.084;2022-07-17T05:30:51;6.17;;;2.30;;
36215;SDS011;22257;52.232;21.084;2022-07-17T05:33:17;9.40;;;2.65;;
36215;SDS011;22257;52.232;21.084;2022-07-17T05:35:43;4.17;;;1.95;;
36215;SDS011;22257;52.232;21.084;2022-07-17T05:38:09;6.12;;;2.17;;
36215;SDS011;22257;52.232;21.084;2022-07-17T05:40:36;9.88;;;2.47;;
36215;SDS011;22257;52.232;21.084;2022-07-17T05:43:03;7.50;;;2.10;;
36215;SDS011;22257;52.232;21.084;2022-07-17T05:45:29;6.75;;;1.75;;
36215;SDS011;22257;52.232;21.084;2022-07-17T05:47:54;7.90;;;2.00;;
36215;SDS011;22257;52.232;21.084;2022-07-17T05:50:20;5.50;;;1.70;;
36215;SDS011;22257;52.232;21.084;2022-07-17T05:52:47;6.37;;;1.92;;
36215;SDS011;22257;52.232;21.084;2022-07-17T05:55:13;6.75;;;1.65;;
36215;SDS011;22257;52.232;21.084;2022-07-17T05:57:39;3.95;;;1.72;;
36215;SDS011;22257;52.232;21.084;2022-07-17T06:00:05;3.92;;;1.45;;
36215;SDS011;22257;52.232;21.084;2022-07-17T06:02:33;6.25;;;2.30;;
36215;SDS011;22257;52.232;21.084;2022-07-17T06:04:59;10.15;;;2.50;;
36215;SDS011;22257;52.232;21.084;2022-07-17T06:07:26;9.68;;;2.10;;
36215;SDS011;22257;52.232;21.084;2022-07-17T06:09:52;9.05;;;2.17;;
36215;SDS011;22257;52.232;21.084;2022-07-17T06:12:18;4.55;;;1.50;;
36215;SDS011;22257;52.232;21.084;2022-07-17T06:14:44;8.33;;;1.72;;
36215;SDS011;22257;52.232;21.084;2022-07-17T06:17:10;6.95;;;1.75;;
36215;SDS011;22257;52.232;21.084;2022-07-17T06:19:36;12.28;;;2.33;;
36215;SDS011;22257;52.232;21.084;2022-07-17T06:22:02;5.92;;;1.47;;
36215;SDS011;22257;52.232;21.084;2022-07-17T06:24:28;5.53;;;1.92;;
36215;SDS011;22257;52.232;21.084;2022-07-17T06:26:54;4.35;;;1.85;;
36215;SDS011;22257;52.232;21.084;2022-07-17T06:29:20;9.10;;;2.20;;
36215;SDS011;22257;52.232;21.084;2022-07-17T06:31:47;7.28;;;2.00;;
36215;SDS011;22257;52.232;21.084;2022-07-17T06:34:13;7.17;;;1.87;;
36215;SDS011;22257;52.232;21.084;2022-07-17T06:36:39;10.88;;;2.40;;
36215;SDS011;22257;52.232;21.084;2022-07-17T06:39:05;9.53;;;2.08;;
36215;SDS011;22257;52.232;21.084;2022-07-17T06:41:31;5.42;;;2.27;;
36215;SDS011;22257;52.232;21.084;2022-07-17T06:43:57;5.92;;;1.90;;
36215;SDS011;22257;52.232;21.084;2022-07-17T06:46:23;11.03;;;2.37;;
36215;SDS011;22257;52.232;21.084;2022-07-17T06:48:49;5.10;;;1.80;;
36215;SDS011;22257;52.232;21.084;2022-07-17T06:51:18;5.95;;;1.92;;
36215;SDS011;22257;52.232;21.084;2022-07-17T06:53:44;6.72;;;2.00;;
36215;SDS011;22257;52.232;21.084;2022-07-17T06:56:10;8.53;;;2.50;;
36215;SDS011;22257;52.232;21.084;2022-07-17T06:58:36;7.90;;;1.80;;
36215;SDS011;22257;52.232;21.084;2022-07-17T07:01:02;7.47;;;1.95;;
36215;SDS011;22257;52.232;21.084;2022-07-17T07:03:29;10.10;;;1.90;;
36215;SDS011;22257;52.232;21.084;2022-07-17T07:05:55;9.43;;;1.70;;
36215;SDS011;22257;52.232;21.084;2022-07-17T07:08:21;5.25;;;1.40;;
36215;SDS011;22257;52.232;21.084;2022-07-17T07:10:47;4.92;;;1.32;;
36215;SDS011;22257;52.232;21.084;2022-07-17T07:13:13;9.48;;;1.90;;
36215;SDS011;22257;52.232;21.084;2022-07-17T07:15:39;4.97;;;2.00;;
36215;SDS011;22257;52.232;21.084;2022-07-17T07:18:05;5.25;;;1.87;;
36215;SDS011;22257;52.232;21.084;2022-07-17T07:20:31;5.78;;;2.42;;
36215;SDS011;22257;52.232;21.084;2022-07-17T07:22:58;8.30;;;2.60;;
36215;SDS011;22257;52.232;21.084;2022-07-17T07:25:24;7.35;;;1.95;;
36215;SDS011;22257;52.232;21.084;2022-07-17T07:27:50;8.28;;;2.55;;
36215;SDS011;22257;52.232;21.084;2022-07-17T07:30:17;6.58;;;2.50;;
36215;SDS011;22257;52.232;21.084;2022-07-17T07:32:43;4.62;;;2.40;;
36215;SDS011;22257;52.232;21.084;2022-07-17T07:35:09;8.33;;;2.47;;
36215;SDS011;22257;52.232;21.084;2022-07-17T07:37:36;6.60;;;1.80;;
36215;SDS011;22257;52.232;21.084;2022-07-17T07:40:03;5.67;;;2.42;;
36215;SDS011;22257;52.232;21.084;2022-07-17T07:42:30;10.70;;;2.80;;
36215;SDS011;22257;52.232;21.084;2022-07-17T07:44:56;6.75;;;2.70;;
36215;SDS011;22257;52.232;21.084;2022-07-17T07:47:22;7.17;;;2.27;;
36215;SDS011;22257;52.232;21.084;2022-07-17T07:49:48;6.58;;;2.20;;
36215;SDS011;22257;52.232;21.084;2022-07-17T07:52:15;7.65;;;2.58;;
36215;SDS011;22257;52.232;21.084;2022-07-17T07:54:41;9.75;;;2.75;;
36215;SDS011;22257;52.232;21.084;2022-07-17T07:57:07;8.85;;;2.22;;
36215;SDS011;22257;52.232;21.084;2022-07-17T07:59:33;11.78;;;2.50;;
36215;SDS011;22257;52.232;21.084;2022-07-17T08:02:00;10.05;;;2.77;;
36215;SDS011;22257;52.232;21.084;2022-07-17T08:04:27;7.72;;;2.47;;
36215;SDS011;22257;52.232;21.084;2022-07-17T08:06:53;8.35;;;2.10;;
36215;SDS011;22257;52.232;21.084;2022-07-17T08:09:20;12.30;;;2.62;;
36215;SDS011;22257;52.232;21.084;2022-07-17T08:11:46;7.47;;;2.30;;
36215;SDS011;22257;52.232;21.084;2022-07-17T08:14:12;10.08;;;2.50;;
36215;SDS011;22257;52.232;21.084;2022-07-17T08:16:38;6.78;;;1.70;;
36215;SDS011;22257;52.232;21.084;2022-07-17T08:19:04;5.15;;;2.00;;
36215;SDS011;22257;52.232;21.084;2022-07-17T08:21:31;6.12;;;2.20;;
36215;SDS011;22257;52.232;21.084;2022-07-17T08:23:57;9.58;;;2.17;;
36215;SDS011;22257;52.232;21.084;2022-07-17T08:26:23;5.12;;;2.00;;
36215;SDS011;22257;52.232;21.084;2022-07-17T08:28:49;7.53;;;1.87;;
36215;SDS011;22257;52.232;21.084;2022-07-17T08:31:15;8.78;;;2.08;;
36215;SDS011;22257;52.232;21.084;2022-07-17T08:33:41;11.55;;;2.17;;
36215;SDS011;22257;52.232;21.084;2022-07-17T08:36:07;5.58;;;1.92;;
36215;SDS011;22257;52.232;21.084;2022-07-17T08:38:33;7.00;;;2.15;;
36215;SDS011;22257;52.232;21.084;2022-07-17T08:41:00;4.97;;;1.70;;
36215;SDS011;22257;52.232;21.084;2022-07-17T08:43:26;10.00;;;2.20;;
36215;SDS011;22257;52.232;21.084;2022-07-17T08:45:52;5.30;;;1.82;;
36215;SDS011;22257;52.232;21.084;2022-07-17T08:48:19;4.08;;;1.72;;
36215;SDS011;22257;52.232;21.084;2022-07-17T08:50:47;3.55;;;1.60;;
36215;SDS011;22257;52.232;21.084;2022-07-17T08:53:13;4.90;;;1.45;;
36215;SDS011;22257;52.232;21.084;2022-07-17T08:55:39;5.83;;;1.98;;
36215;SDS011;22257;52.232;21.084;2022-07-17T08:58:05;7.95;;;1.80;;
36215;SDS011;22257;52.232;21.084;2022-07-17T09:00:31;4.72;;;1.50;;
36215;SDS011;22257;52.232;21.084;2022-07-17T09:03:03;5.00;;;1.72;;
36215;SDS011;22257;52.232;21.084;2022-07-17T09:05:32;5.33;;;2.17;;
36215;SDS011;22257;52.232;21.084;2022-07-17T09:08:00;3.10;;;1.45;;
36215;SDS011;22257;52.232;21.084;2022-07-17T09:13:23;5.30;;;2.35;;
36215;SDS011;22257;52.232;21.084;2022-07-17T09:15:52;4.83;;;1.70;;
36215;SDS011;22257;52.232;21.084;2022-07-17T09:18:20;3.75;;;1.60;;
36215;SDS011;22257;52.232;21.084;2022-07-17T09:20:51;7.25;;;1.70;;
36215;SDS011;22257;52.232;21.084;2022-07-17T09:23:16;5.15;;;1.65;;
36215;SDS011;22257;52.232;21.084;2022-07-17T09:25:44;4.25;;;1.10;;
36215;SDS011;22257;52.232;21.084;2022-07-17T09:28:13;2.00;;;0.82;;
36215;SDS011;22257;52.232;21.084;2022-07-17T09:30:41;3.20;;;1.20;;
36215;SDS011;22257;52.232;21.084;2022-07-17T09:33:14;4.53;;;1.50;;
36215;SDS011;22257;52.232;21.084;2022-07-17T09:35:48;3.75;;;1.10;;
36215;SDS011;22257;52.232;21.084;2022-07-17T09:38:32;3.80;;;1.35;;
36215;SDS011;22257;52.232;21.084;2022-07-17T09:41:05;4.62;;;1.20;;
36215;SDS011;22257;52.232;21.084;2022-07-17T09:43:45;2.70;;;1.35;;
36215;SDS011;22257;52.232;21.084;2022-07-17T09:46:14;2.35;;;1.17;;
36215;SDS011;22257;52.232;21.084;2022-07-17T09:48:43;12.23;;;1.40;;
36215;SDS011;22257;52.232;21.084;2022-07-17T09:51:18;4.92;;;1.30;;
36215;SDS011;22257;52.232;21.084;2022-07-17T09:53:46;2.12;;;1.12;;
36215;SDS011;22257;52.232;21.084;2022-07-17T09:56:14;2.85;;;1.12;;
36215;SDS011;22257;52.232;21.084;2022-07-17T09:58:45;3.22;;;1.10;;
36215;SDS011;22257;52.232;21.084;2022-07-17T10:01:14;3.25;;;1.17;;
36215;SDS011;22257;52.232;21.084;2022-07-17T10:03:41;4.75;;;1.07;;
36215;SDS011;22257;52.232;21.084;2022-07-17T10:06:11;5.40;;;1.17;;
36215;SDS011;22257;52.232;21.084;2022-07-17T10:08:38;7.65;;;1.20;;
36215;SDS011;22257;52.232;21.084;2022-07-17T10:11:08;12.90;;;1.30;;
36215;SDS011;22257;52.232;21.084;2022-07-17T10:16:03;3.62;;;1.07;;
36215;SDS011;22257;52.232;21.084;2022-07-17T10:18:40;5.33;;;1.52;;
36215;SDS011;22257;52.232;21.084;2022-07-17T10:21:14;9.00;;;1.22;;
36215;SDS011;22257;52.232;21.084;2022-07-17T10:23:43;6.83;;;1.10;;
36215;SDS011;22257;52.232;21.084;2022-07-17T10:26:12;4.10;;;1.30;;
36215;SDS011;22257;52.232;21.084;2022-07-17T10:28:46;9.35;;;1.55;;
36215;SDS011;22257;52.232;21.084;2022-07-17T10:31:23;7.42;;;1.42;;
36215;SDS011;22257;52.232;21.084;2022-07-17T10:33:57;3.62;;;1.20;;
36215;SDS011;22257;52.232;21.084;2022-07-17T10:36:37;4.33;;;1.02;;
36215;SDS011;22257;52.232;21.084;2022-07-17T10:41:41;4.17;;;1.92;;
36215;SDS011;22257;52.232;21.084;2022-07-17T10:44:08;1.42;;;0.85;;
36215;SDS011;22257;52.232;21.084;2022-07-17T10:46:35;4.28;;;1.07;;
36215;SDS011;22257;52.232;21.084;2022-07-17T10:49:01;7.37;;;1.22;;
36215;SDS011;22257;52.232;21.084;2022-07-17T10:51:33;4.55;;;1.02;;
36215;SDS011;22257;52.232;21.084;2022-07-17T10:54:01;7.22;;;1.12;;
36215;SDS011;22257;52.232;21.084;2022-07-17T10:56:27;2.72;;;1.07;;
36215;SDS011;22257;52.232;21.084;2022-07-17T10:58:53;7.30;;;1.27;;
36215;SDS011;22257;52.232;21.084;2022-07-17T11:01:23;4.25;;;1.10;;
36215;SDS011;22257;52.232;21.084;2022-07-17T11:03:53;7.20;;;1.25;;
36215;SDS011;22257;52.232;21.084;2022-07-17T11:06:22;3.55;;;1.30;;
36215;SDS011;22257;52.232;21.084;2022-07-17T11:08:54;3.10;;;1.30;;
36215;SDS011;22257;52.232;21.084;2022-07-17T11:11:23;4.92;;;1.22;;
36215;SDS011;22257;52.232;21.084;2022-07-17T11:14:24;6.80;;;1.10;;
36215;SDS011;22257;52.232;21.084;2022-07-17T11:16:55;5.47;;;1.22;;
36215;SDS011;22257;52.232;21.084;2022-07-17T11:21:57;2.98;;;1.10;;
36215;SDS011;22257;52.232;21.084;2022-07-17T11:24:34;6.15;;;1.50;;
36215;SDS011;22257;52.232;21.084;2022-07-17T11:27:04;5.17;;;1.55;;
36215;SDS011;22257;52.232;21.084;2022-07-17T11:29:35;3.33;;;1.22;;
36215;SDS011;22257;52.232;21.084;2022-07-17T11:32:05;5.05;;;1.40;;
36215;SDS011;22257;52.232;21.084;2022-07-17T11:34:31;10.08;;;1.50;;
36215;SDS011;22257;52.232;21.084;2022-07-17T11:36:59;6.80;;;1.40;;
36215;SDS011;22257;52.232;21.084;2022-07-17T11:39:35;7.35;;;1.40;;
36215;SDS011;22257;52.232;21.084;2022-07-17T11:42:09;2.25;;;1.32;;
36215;SDS011;22257;52.232;21.084;2022-07-17T11:44:37;5.12;;;1.57;;
36215;SDS011;22257;52.232;21.084;2022-07-17T11:47:04;5.25;;;1.50;;
36215;SDS011;22257;52.232;21.084;2022-07-17T11:49:34;3.98;;;1.52;;
36215;SDS011;22257;52.232;21.084;2022-07-17T11:52:11;4.95;;;1.45;;
36215;SDS011;22257;52.232;21.084;2022-07-17T11:54:47;5.75;;;1.70;;
36215;SDS011;22257;52.232;21.084;2022-07-17T11:57:18;6.35;;;1.87;;
36215;SDS011;22257;52.232;21.084;2022-07-17T11:59:45;2.70;;;1.70;;
36215;SDS011;22257;52.232;21.084;2022-07-17T12:02:12;4.75;;;1.77;;
36215;SDS011;22257;52.232;21.084;2022-07-17T12:04:53;4.37;;;1.80;;
36215;SDS011;22257;52.232;21.084;2022-07-17T12:07:22;3.40;;;1.50;;
36215;SDS011;22257;52.232;21.084;2022-07-17T12:09:49;4.85;;;2.00;;
36215;SDS011;22257;52.232;21.084;2022-07-17T12:12:26;6.28;;;2.00;;
36215;SDS011;22257;52.232;21.084;2022-07-17T12:14:53;7.15;;;2.42;;
36215;SDS011;22257;52.232;21.084;2022-07-17T12:17:23;8.58;;;1.95;;
36215;SDS011;22257;52.232;21.084;2022-07-17T12:19:50;7.50;;;1.80;;
36215;SDS011;22257;52.232;21.084;2022-07-17T12:22:17;5.10;;;1.50;;
36215;SDS011;22257;52.232;21.084;2022-07-17T12:24:44;3.95;;;1.30;;
36215;SDS011;22257;52.232;21.084;2022-07-17T12:27:15;4.62;;;1.35;;
36215;SDS011;22257;52.232;21.084;2022-07-17T12:32:13;5.25;;;1.72;;
36215;SDS011;22257;52.232;21.084;2022-07-17T12:34:45;1.92;;;0.90;;
36215;SDS011;22257;52.232;21.084;2022-07-17T12:37:13;2.20;;;0.98;;
36215;SDS011;22257;52.232;21.084;2022-07-17T12:39:42;7.08;;;1.12;;
36215;SDS011;22257;52.232;21.084;2022-07-17T12:42:09;3.20;;;0.88;;
36215;SDS011;22257;52.232;21.084;2022-07-17T12:44:36;3.67;;;1.00;;
36215;SDS011;22257;52.232;21.084;2022-07-17T12:47:02;5.47;;;1.10;;
36215;SDS011;22257;52.232;21.084;2022-07-17T12:49:29;2.45;;;1.25;;
36215;SDS011;22257;52.232;21.084;2022-07-17T12:51:56;3.25;;;1.12;;
36215;SDS011;22257;52.232;21.084;2022-07-17T12:54:22;1.70;;;0.90;;
36215;SDS011;22257;52.232;21.084;2022-07-17T12:56:49;3.92;;;0.90;;
36215;SDS011;22257;52.232;21.084;2022-07-17T12:59:15;3.30;;;0.90;;
36215;SDS011;22257;52.232;21.084;2022-07-17T13:01:42;2.02;;;1.00;;
36215;SDS011;22257;52.232;21.084;2022-07-17T13:04:08;3.90;;;1.10;;
36215;SDS011;22257;52.232;21.084;2022-07-17T13:06:34;5.53;;;1.07;;
36215;SDS011;22257;52.232;21.084;2022-07-17T13:09:01;5.55;;;1.02;;
36215;SDS011;22257;52.232;21.084;2022-07-17T13:11:27;2.60;;;1.07;;
36215;SDS011;22257;52.232;21.084;2022-07-17T13:13:53;1.60;;;1.00;;
36215;SDS011;22257;52.232;21.084;2022-07-17T13:16:20;3.02;;;0.85;;
36215;SDS011;22257;52.232;21.084;2022-07-17T13:18:47;12.75;;;0.90;;
36215;SDS011;22257;52.232;21.084;2022-07-17T13:21:13;3.17;;;0.88;;
36215;SDS011;22257;52.232;21.084;2022-07-17T13:23:39;7.28;;;1.00;;
36215;SDS011;22257;52.232;21.084;2022-07-17T13:26:06;1.20;;;0.70;;
36215;SDS011;22257;52.232;21.084;2022-07-17T13:28:33;1.80;;;0.80;;
36215;SDS011;22257;52.232;21.084;2022-07-17T13:30:59;2.05;;;0.80;;
36215;SDS011;22257;52.232;21.084;2022-07-17T13:33:25;2.20;;;0.80;;
36215;SDS011;22257;52.232;21.084;2022-07-17T13:35:52;1.27;;;0.85;;
36215;SDS011;22257;52.232;21.084;2022-07-17T13:38:19;4.35;;;1.10;;
36215;SDS011;22257;52.232;21.084;2022-07-17T13:40:45;3.05;;;0.98;;
36215;SDS011;22257;52.232;21.084;2022-07-17T13:43:11;2.72;;;1.02;;
36215;SDS011;22257;52.232;21.084;2022-07-17T13:45:38;2.08;;;1.02;;
36215;SDS011;22257;52.232;21.084;2022-07-17T13:48:04;6.25;;;1.10;;
36215;SDS011;22257;52.232;21.084;2022-07-17T13:50:30;4.22;;;0.80;;
36215;SDS011;22257;52.232;21.084;2022-07-17T13:52:56;2.55;;;0.75;;
36215;SDS011;22257;52.232;21.084;2022-07-17T13:55:22;5.90;;;1.10;;
36215;SDS011;22257;52.232;21.084;2022-07-17T13:57:49;3.95;;;0.95;;
36215;SDS011;22257;52.232;21.084;2022-07-17T14:00:15;1.87;;;1.05;;
36215;SDS011;22257;52.232;21.084;2022-07-17T14:02:43;2.12;;;0.78;;
36215;SDS011;22257;52.232;21.084;2022-07-17T14:05:10;4.28;;;0.90;;
36215;SDS011;22257;52.232;21.084;2022-07-17T14:07:37;2.10;;;0.70;;
36215;SDS011;22257;52.232;21.084;2022-07-17T14:10:04;4.33;;;1.20;;
36215;SDS011;22257;52.232;21.084;2022-07-17T14:12:31;2.90;;;0.85;;
36215;SDS011;22257;52.232;21.084;2022-07-17T14:14:57;2.20;;;0.90;;
36215;SDS011;22257;52.232;21.084;2022-07-17T14:17:24;2.60;;;0.90;;
36215;SDS011;22257;52.232;21.084;2022-07-17T14:19:50;5.05;;;1.00;;
36215;SDS011;22257;52.232;21.084;2022-07-17T14:22:17;2.92;;;1.10;;
36215;SDS011;22257;52.232;21.084;2022-07-17T14:24:43;2.98;;;0.78;;
36215;SDS011;22257;52.232;21.084;2022-07-17T14:27:09;1.98;;;0.90;;
36215;SDS011;22257;52.232;21.084;2022-07-17T14:29:35;1.92;;;0.95;;
36215;SDS011;22257;52.232;21.084;2022-07-17T14:32:01;3.83;;;1.00;;
36215;SDS011;22257;52.232;21.084;2022-07-17T14:34:28;2.52;;;1.47;;
36215;SDS011;22257;52.232;21.084;2022-07-17T14:36:54;2.83;;;1.02;;
36215;SDS011;22257;52.232;21.084;2022-07-17T14:39:20;4.28;;;0.80;;
36215;SDS011;22257;52.232;21.084;2022-07-17T14:41:46;2.85;;;0.90;;
36215;SDS011;22257;52.232;21.084;2022-07-17T14:44:12;4.60;;;1.07;;
36215;SDS011;22257;52.232;21.084;2022-07-17T14:46:39;2.00;;;1.00;;
36215;SDS011;22257;52.232;21.084;2022-07-17T14:49:05;1.12;;;1.00;;